Time,TemperatureF,DewpointF,PressureIn,WindDirection,WindDirectionDegrees,WindSpeedMPH,WindSpeedGustMPH,Humidity,HourlyPrecipIn,Conditions,Clouds,dailyrainin,SoftwareType,DateUTC
2013-04-09 00:00:00,60.8,49.8,28.61,North,0,5.4,6.3,67,0.00,,-RA,0.00,VWS V14.00,2013-04-09 05:00:00,
2013-04-09 00:05:00,60.6,50.4,28.61,North,357,7.6,7.6,69,0.00,,-RA,0.00,VWS V14.00,2013-04-09 05:05:00,
2013-04-09 00:10:00,60.6,50.4,28.59,North,349,5.8,8.3,69,0.00,,-RA,0.00,VWS V14.00,2013-04-09 05:10:00,
2013-04-09 00:15:00,60.6,50.4,28.59,NNE,25,4.9,8.3,69,0.00,,-RA,0.00,VWS V14.00,2013-04-09 05:15:00,
2013-04-09 00:20:00,60.6,50.8,28.59,North,353,4.0,5.8,70,0.00,,-RA,0.00,VWS V14.00,2013-04-09 05:20:00,
2013-04-09 00:25:00,60.6,50.8,28.59,NNE,22,2.7,6.3,70,0.00,,-RA,0.00,VWS V14.00,2013-04-09 05:25:00,
2013-04-09 00:30:00,60.6,50.8,28.59,NE,41,4.0,4.0,70,0.00,,-RA,0.00,VWS V14.00,2013-04-09 05:30:00,
2013-04-09 00:35:00,60.8,50.6,28.59,NNE,23,3.1,8.7,69,0.00,,OVC095,0.00,VWS V14.00,2013-04-09 05:35:00,
2013-04-09 00:40:00,61.0,50.8,28.59,NNW,335,6.7,6.7,69,0.00,,OVC095,0.00,VWS V14.00,2013-04-09 05:40:00,
2013-04-09 00:45:00,61.2,50.9,28.59,North,6,8.1,10.5,69,0.00,,OVC095,0.00,VWS V14.00,2013-04-09 05:45:00,
2013-04-09 00:50:00,61.0,51.1,28.59,NE,51,5.8,8.1,70,0.00,,OVC095,0.00,VWS V14.00,2013-04-09 05:50:00,
2013-04-09 00:55:00,60.4,51.0,28.59,NE,41,5.4,8.1,71,0.00,,OVC095,0.00,VWS V14.00,2013-04-09 05:55:00,
2013-04-09 01:00:00,60.3,51.2,28.59,NNE,17,4.0,4.0,72,0.00,,-RA,0.00,VWS V14.00,2013-04-09 06:00:00,
2013-04-09 01:05:00,60.4,52.1,28.59,NNW,337,5.4,8.1,74,0.00,,-RA,0.00,VWS V14.00,2013-04-09 06:05:00,
2013-04-09 01:10:00,60.6,53.0,28.59,North,3,4.9,8.3,76,0.00,,-RA,0.00,VWS V14.00,2013-04-09 06:10:00,
2013-04-09 01:15:00,60.8,53.5,28.59,North,10,5.4,8.3,77,0.00,,-RA,0.00,VWS V14.00,2013-04-09 06:15:00,
2013-04-09 01:20:00,60.8,53.9,28.59,NW,306,7.6,7.6,78,0.00,,-RA,0.00,VWS V14.00,2013-04-09 06:20:00,
2013-04-09 01:25:00,61.0,54.4,28.61,North,9,7.6,10.1,79,0.00,,-RA,0.00,VWS V14.00,2013-04-09 06:25:00,
2013-04-09 01:30:00,61.0,54.4,28.61,NNE,29,6.3,6.3,79,0.00,,-RA,0.00,VWS V14.00,2013-04-09 06:30:00,
2013-04-09 01:35:00,61.0,54.1,28.61,NE,36,5.8,6.3,78,0.00,,-RA,0.00,VWS V14.00,2013-04-09 06:35:00,
2013-04-09 01:40:00,61.0,54.1,28.61,NE,35,5.8,6.3,78,0.00,,-RA,0.00,VWS V14.00,2013-04-09 06:40:00,
2013-04-09 01:45:00,61.2,53.9,28.59,ENE,59,6.3,8.7,77,0.00,,-RA,0.00,VWS V14.00,2013-04-09 06:45:00,
2013-04-09 01:50:00,61.0,53.7,28.59,ENE,77,5.8,5.8,77,0.00,,-RA,0.00,VWS V14.00,2013-04-09 06:50:00,
2013-04-09 01:55:00,61.0,53.7,28.61,North,350,3.6,7.6,77,0.00,,,0.00,VWS V14.00,2013-04-09 06:55:00,
2013-04-09 02:00:00,61.2,54.3,28.61,NE,44,2.7,3.6,78,0.00,,,0.00,VWS V14.00,2013-04-09 07:00:00,
2013-04-09 02:05:00,61.0,54.4,28.61,NNE,17,5.4,6.3,79,0.00,,,0.00,VWS V14.00,2013-04-09 07:05:00,
2013-04-09 02:10:00,61.0,54.4,28.59,NE,40,3.6,5.4,79,0.00,,,0.00,VWS V14.00,2013-04-09 07:10:00,
2013-04-09 02:15:00,60.8,54.6,28.59,NE,35,2.7,6.3,80,0.00,,,0.00,VWS V14.00,2013-04-09 07:15:00,
2013-04-09 02:20:00,60.3,54.4,28.59,NNE,22,4.9,5.4,81,0.00,,,0.00,VWS V14.00,2013-04-09 07:20:00,
2013-04-09 02:25:00,59.7,54.2,28.59,NW,318,7.6,8.7,82,0.00,,,0.00,VWS V14.00,2013-04-09 07:25:00,
2013-04-09 02:30:00,59.0,53.5,28.59,NNW,327,4.0,4.5,82,0.00,,,0.00,VWS V14.00,2013-04-09 07:30:00,
2013-04-09 02:35:00,58.1,52.3,28.59,North,0,3.6,8.1,81,0.00,,,0.00,VWS V14.00,2013-04-09 07:35:00,
2013-04-09 02:40:00,57.9,52.5,28.59,NNW,338,2.7,2.7,82,0.00,,-RA,0.00,VWS V14.00,2013-04-09 07:40:00,
2013-04-09 02:45:00,57.9,52.5,28.59,North,0,3.1,3.6,82,0.00,,-RA,0.00,VWS V14.00,2013-04-09 07:45:00,
2013-04-09 02:50:00,57.9,52.8,28.59,North,357,4.0,4.0,83,0.00,,-RA,0.00,VWS V14.00,2013-04-09 07:50:00,
2013-04-09 02:55:00,58.3,53.2,28.59,North,349,4.0,6.3,83,0.00,,-RA,0.00,VWS V14.00,2013-04-09 07:55:00,
2013-04-09 03:00:00,58.5,53.7,28.59,North,0,5.4,5.4,84,0.00,,OVC048,0.00,VWS V14.00,2013-04-09 08:00:00,
2013-04-09 03:05:00,58.8,54.0,28.59,NW,321,0.0,6.3,84,0.00,,OVC048,0.00,VWS V14.00,2013-04-09 08:05:00,
2013-04-09 03:10:00,58.8,54.3,28.59,North,353,2.7,3.6,85,0.00,,OVC048,0.00,VWS V14.00,2013-04-09 08:10:00,
2013-04-09 03:15:00,59.0,54.5,28.59,NW,324,2.7,7.6,85,0.00,,OVC048,0.00,VWS V14.00,2013-04-09 08:15:00,
2013-04-09 03:20:00,59.0,54.5,28.59,NNW,337,3.1,4.0,85,0.00,,OVC048,0.00,VWS V14.00,2013-04-09 08:20:00,
2013-04-09 03:25:00,58.8,54.7,28.59,North,353,3.1,6.3,86,0.00,,OVC048,0.00,VWS V14.00,2013-04-09 08:25:00,
2013-04-09 03:30:00,59.0,54.8,28.59,NW,306,3.1,4.0,86,0.00,,OVC048,0.00,VWS V14.00,2013-04-09 08:30:00,
2013-04-09 03:35:00,59.0,54.8,28.59,NW,323,0.0,6.3,86,0.00,,OVC048,0.00,VWS V14.00,2013-04-09 08:35:00,
2013-04-09 03:40:00,59.0,54.8,28.59,North,357,3.1,3.6,86,0.00,,OVC048,0.00,VWS V14.00,2013-04-09 08:40:00,
2013-04-09 03:45:00,59.0,55.1,28.59,NNW,340,2.7,6.3,87,0.00,,OVC048,0.00,VWS V14.00,2013-04-09 08:45:00,
2013-04-09 03:50:00,59.0,55.1,28.59,NNW,335,2.2,5.4,87,0.00,,OVC048,0.00,VWS V14.00,2013-04-09 08:50:00,
2013-04-09 03:55:00,59.0,55.1,28.59,NW,321,3.6,5.4,87,0.00,,OVC048,0.00,VWS V14.00,2013-04-09 08:55:00,
2013-04-09 04:00:00,58.6,55.1,28.59,NNW,329,3.1,4.0,88,0.00,,BKN100,0.00,VWS V14.00,2013-04-09 09:00:00,
2013-04-09 04:05:00,58.5,54.9,28.59,WNW,299,3.1,5.4,88,0.00,,BKN100,0.00,VWS V14.00,2013-04-09 09:05:00,
2013-04-09 04:10:00,58.5,54.9,28.59,West,265,2.7,2.7,88,0.00,,BKN100,0.00,VWS V14.00,2013-04-09 09:10:00,
2013-04-09 04:15:00,58.3,54.8,28.59,NNW,345,0.0,2.7,88,0.00,,BKN100,0.00,VWS V14.00,2013-04-09 09:15:00,
2013-04-09 04:20:00,58.3,54.8,28.59,WNW,303,4.0,5.8,88,0.00,,BKN100,0.00,VWS V14.00,2013-04-09 09:20:00,
2013-04-09 04:25:00,58.3,54.8,28.59,WNW,285,0.0,6.3,88,0.00,,BKN100,0.00,VWS V14.00,2013-04-09 09:25:00,
2013-04-09 04:30:00,58.1,54.6,28.59,SW,218,0.0,0.0,88,0.00,,BKN100,0.00,VWS V14.00,2013-04-09 09:30:00,
2013-04-09 04:35:00,58.1,54.6,28.59,WNW,288,2.7,7.2,88,0.00,,BKN100,0.00,VWS V14.00,2013-04-09 09:35:00,
2013-04-09 04:40:00,57.9,54.4,28.59,North,0,0.0,4.0,88,0.00,,BKN100,0.00,VWS V14.00,2013-04-09 09:40:00,
2013-04-09 04:45:00,57.7,54.2,28.59,NW,320,3.6,7.2,88,0.00,,BKN100,0.00,VWS V14.00,2013-04-09 09:45:00,
2013-04-09 04:51:00,57.7,54.5,28.59,NNW,343,3.1,5.8,89,0.00,,BKN100,0.00,VWS V14.00,2013-04-09 09:51:00,
2013-04-09 04:56:00,57.6,54.3,28.59,North,353,4.9,6.3,89,0.00,,BKN100,0.00,VWS V14.00,2013-04-09 09:56:00,
2013-04-09 05:01:00,57.6,54.3,28.59,North,353,6.3,8.1,89,0.00,,BKN100,0.00,VWS V14.00,2013-04-09 10:01:00,
2013-04-09 05:06:00,57.4,54.2,28.59,North,7,7.6,8.3,89,0.00,,OVC036,0.00,VWS V14.00,2013-04-09 10:06:00,
2013-04-09 05:11:00,57.2,54.0,28.59,North,0,8.3,8.3,89,0.00,,OVC036,0.00,VWS V14.00,2013-04-09 10:11:00,
2013-04-09 05:16:00,57.0,53.8,28.59,NW,322,8.1,8.3,89,0.00,,OVC036,0.00,VWS V14.00,2013-04-09 10:16:00,
2013-04-09 05:21:00,56.7,53.5,28.59,NNW,348,4.5,6.7,89,0.00,,OVC036,0.00,VWS V14.00,2013-04-09 10:21:00,
2013-04-09 05:26:00,56.5,53.3,28.56,NNW,341,5.8,6.7,89,0.00,,OVC036,0.00,VWS V14.00,2013-04-09 10:26:00,
2013-04-09 05:31:00,56.3,53.1,28.56,NNW,341,2.7,4.9,89,0.00,,OVC036,0.00,VWS V14.00,2013-04-09 10:31:00,
2013-04-09 05:36:00,56.3,53.1,28.56,NW,321,4.9,4.9,89,0.00,,OVC036,0.00,VWS V14.00,2013-04-09 10:36:00,
2013-04-09 05:41:00,56.3,53.1,28.59,North,0,5.4,6.3,89,0.00,,OVC036,0.00,VWS V14.00,2013-04-09 10:41:00,
2013-04-09 05:46:00,56.3,53.1,28.59,NW,315,4.0,6.3,89,0.00,,OVC036,0.00,VWS V14.00,2013-04-09 10:46:00,
2013-04-09 05:51:00,56.3,53.4,28.59,North,353,6.3,6.3,90,0.00,,OVC036,0.00,VWS V14.00,2013-04-09 10:51:00,
2013-04-09 05:57:00,56.3,53.4,28.59,North,2,5.8,8.7,90,0.00,,OVC036,0.00,VWS V14.00,2013-04-09 10:57:00,
2013-04-09 06:02:00,56.3,53.4,28.59,NE,40,8.3,10.5,90,0.00,,RA,0.00,VWS V14.00,2013-04-09 11:02:00,
2013-04-09 06:07:00,56.3,53.4,28.59,North,353,5.4,10.5,90,0.00,,RA,0.00,VWS V14.00,2013-04-09 11:07:00,
2013-04-09 06:12:00,56.5,53.6,28.59,North,5,4.0,6.3,90,0.00,,RA,0.00,VWS V14.00,2013-04-09 11:12:00,
2013-04-09 06:17:00,56.5,53.6,28.59,NNW,333,5.8,10.1,90,0.00,,RA,0.00,VWS V14.00,2013-04-09 11:17:00,
2013-04-09 06:22:00,56.5,53.6,28.59,NNW,346,8.3,8.3,90,0.00,,RA,0.00,VWS V14.00,2013-04-09 11:22:00,
2013-04-09 06:27:00,56.5,53.6,28.59,North,357,5.4,8.7,90,0.00,,RA,0.00,VWS V14.00,2013-04-09 11:27:00,
2013-04-09 06:32:00,56.7,53.8,28.59,NNW,348,5.4,8.3,90,0.00,,RA,0.00,VWS V14.00,2013-04-09 11:32:00,
2013-04-09 06:37:00,56.8,53.9,28.59,NNW,336,10.5,11.0,90,0.00,,RA,0.00,VWS V14.00,2013-04-09 11:37:00,
2013-04-09 06:42:00,57.0,54.1,28.59,North,4,7.6,7.6,90,0.00,,RA,0.00,VWS V14.00,2013-04-09 11:42:00,
2013-04-09 06:47:00,57.2,54.3,28.59,NNW,346,4.9,7.6,90,0.00,,RA,0.00,VWS V14.00,2013-04-09 11:47:00,
2013-04-09 06:52:00,57.4,54.5,28.59,NNE,15,5.4,6.3,90,0.00,,RA,0.00,VWS V14.00,2013-04-09 11:52:00,
2013-04-09 06:57:00,57.6,54.7,28.56,North,4,8.7,8.7,90,0.00,,RA,0.00,VWS V14.00,2013-04-09 11:57:00,
2013-04-09 07:02:00,57.6,54.7,28.56,NNW,330,5.4,8.3,90,0.00,,,0.00,VWS V14.00,2013-04-09 12:02:00,
2013-04-09 07:07:00,57.6,54.7,28.56,North,10,5.4,8.3,90,0.00,,,0.00,VWS V14.00,2013-04-09 12:07:00,
2013-04-09 07:12:00,57.7,55.1,28.59,North,0,4.0,6.3,91,0.00,,,0.00,VWS V14.00,2013-04-09 12:12:00,
2013-04-09 07:17:00,57.9,55.3,28.59,NNE,21,4.9,7.6,91,0.00,,,0.00,VWS V14.00,2013-04-09 12:17:00,
2013-04-09 07:22:00,57.9,55.3,28.59,NNW,331,5.4,5.8,91,0.00,,,0.00,VWS V14.00,2013-04-09 12:22:00,
2013-04-09 07:27:00,57.9,55.3,28.59,NNW,346,8.1,8.1,91,0.00,,,0.00,VWS V14.00,2013-04-09 12:27:00,
2013-04-09 07:32:00,57.9,55.3,28.59,NNE,16,2.7,4.5,91,0.00,,,0.00,VWS V14.00,2013-04-09 12:32:00,
2013-04-09 07:37:00,57.9,55.3,28.59,NNE,32,5.4,9.6,91,0.00,,,0.00,VWS V14.00,2013-04-09 12:37:00,
2013-04-09 07:42:00,57.9,55.3,28.59,NE,34,5.4,5.8,91,0.00,,,0.00,VWS V14.00,2013-04-09 12:42:00,
2013-04-09 07:47:00,57.9,55.3,28.59,NNW,337,3.1,6.7,91,0.00,,,0.00,VWS V14.00,2013-04-09 12:47:00,
2013-04-09 07:52:00,57.9,55.3,28.59,NNE,19,3.6,6.3,91,0.00,,,0.00,VWS V14.00,2013-04-09 12:52:00,
2013-04-09 07:57:00,57.9,55.3,28.59,NNE,17,5.8,8.3,91,0.00,,,0.00,VWS V14.00,2013-04-09 12:57:00,
2013-04-09 08:02:00,57.9,55.3,28.59,North,11,5.8,5.8,91,0.00,,,0.00,VWS V14.00,2013-04-09 13:02:00,
2013-04-09 08:07:00,57.9,55.3,28.59,North,357,7.2,8.7,91,0.00,,,0.00,VWS V14.00,2013-04-09 13:07:00,
2013-04-09 08:12:00,57.9,55.3,28.59,NNE,26,7.6,7.6,91,0.00,,,0.00,VWS V14.00,2013-04-09 13:12:00,
2013-04-09 08:17:00,57.9,55.3,28.59,NE,44,5.4,8.3,91,0.00,,,0.00,VWS V14.00,2013-04-09 13:17:00,
2013-04-09 08:22:00,57.9,55.3,28.59,NNE,28,3.6,6.3,91,0.00,,,0.00,VWS V14.00,2013-04-09 13:22:00,
2013-04-09 08:27:00,57.9,55.3,28.56,North,353,5.4,9.2,91,0.00,,,0.00,VWS V14.00,2013-04-09 13:27:00,
2013-04-09 08:32:00,57.9,55.0,28.56,North,353,5.8,6.3,90,0.00,,-RA,0.00,VWS V14.00,2013-04-09 13:32:00,
2013-04-09 08:37:00,57.9,55.0,28.56,North,2,3.6,6.7,90,0.00,,-RA,0.00,VWS V14.00,2013-04-09 13:37:00,
2013-04-09 08:42:00,57.9,55.0,28.59,North,4,5.8,8.1,90,0.00,,-RA,0.00,VWS V14.00,2013-04-09 13:42:00,
2013-04-09 08:47:00,57.9,55.0,28.59,NNE,21,4.0,8.1,90,0.00,,-RA,0.00,VWS V14.00,2013-04-09 13:47:00,
2013-04-09 08:52:00,57.7,54.8,28.59,North,8,5.4,6.7,90,0.00,,-RA,0.00,VWS V14.00,2013-04-09 13:52:00,
2013-04-09 08:57:00,57.7,54.8,28.59,North,353,3.1,6.7,90,0.00,,-RA,0.00,VWS V14.00,2013-04-09 13:57:00,
2013-04-09 09:02:00,57.7,54.5,28.59,NNE,13,4.0,6.3,89,0.00,,,0.00,VWS V14.00,2013-04-09 14:02:00,
2013-04-09 09:07:00,57.9,54.7,28.59,NNE,29,0.0,6.3,89,0.00,,,0.00,VWS V14.00,2013-04-09 14:07:00,
2013-04-09 09:12:00,57.9,54.7,28.59,North,11,2.7,5.4,89,0.00,,,0.00,VWS V14.00,2013-04-09 14:12:00,
2013-04-09 09:17:00,57.9,54.7,28.59,NNW,346,2.2,5.8,89,0.00,,,0.00,VWS V14.00,2013-04-09 14:17:00,
2013-04-09 09:22:00,57.9,54.7,28.59,NNE,15,0.0,0.0,89,0.00,,,0.00,VWS V14.00,2013-04-09 14:22:00,
2013-04-09 09:27:00,57.9,54.7,28.59,North,6,3.1,5.4,89,0.00,,,0.00,VWS V14.00,2013-04-09 14:27:00,
2013-04-09 09:32:00,57.9,54.7,28.59,NNE,26,4.0,4.0,89,0.00,,,0.00,VWS V14.00,2013-04-09 14:32:00,
2013-04-09 09:37:00,57.9,54.4,28.59,NNW,332,4.0,4.0,88,0.00,,,0.00,VWS V14.00,2013-04-09 14:37:00,
2013-04-09 09:42:00,58.1,54.6,28.59,NW,315,0.0,3.1,88,0.00,,,0.00,VWS V14.00,2013-04-09 14:42:00,
2013-04-09 09:47:00,58.3,54.8,28.59,NNW,346,2.7,4.0,88,0.00,,,0.00,VWS V14.00,2013-04-09 14:47:00,
2013-04-09 09:52:00,58.6,55.1,28.59,North,357,2.7,3.6,88,0.00,,,0.00,VWS V14.00,2013-04-09 14:52:00,
2013-04-09 09:57:00,58.6,54.8,28.59,NNW,335,0.0,4.0,87,0.00,,,0.00,VWS V14.00,2013-04-09 14:57:00,
2013-04-09 10:02:00,59.4,55.5,28.59,NNW,344,3.6,4.0,87,0.00,,,0.00,VWS V14.00,2013-04-09 15:02:00,
2013-04-09 10:07:00,61.0,57.4,28.59,North,0,4.9,4.9,88,0.00,,,0.00,VWS V14.00,2013-04-09 15:07:00,
2013-04-09 10:12:00,60.6,57.0,28.59,NNE,21,0.0,6.3,88,0.00,,-RA,0.00,VWS V14.00,2013-04-09 15:12:00,
2013-04-09 10:17:00,60.8,56.6,28.59,North,0,0.0,6.3,86,0.00,,-RA,0.00,VWS V14.00,2013-04-09 15:17:00,
2013-04-09 10:22:00,60.1,55.2,28.59,NE,45,2.2,2.2,84,0.00,,-RA,0.00,VWS V14.00,2013-04-09 15:22:00,
2013-04-09 10:27:00,59.9,54.4,28.59,NE,35,3.6,4.0,82,0.00,,-RA,0.00,VWS V14.00,2013-04-09 15:27:00,
2013-04-09 10:32:00,61.0,55.8,28.59,NE,46,3.6,3.6,83,0.00,,-RA,0.00,VWS V14.00,2013-04-09 15:32:00,
2013-04-09 10:37:00,61.0,54.8,28.59,North,353,3.1,3.6,80,0.00,,-RA,0.00,VWS V14.00,2013-04-09 15:37:00,
2013-04-09 10:42:00,61.7,55.5,28.59,North,353,0.0,2.2,80,0.00,,-RA,0.00,VWS V14.00,2013-04-09 15:42:00,
2013-04-09 10:47:00,61.3,54.4,28.59,North,357,0.0,3.6,78,0.00,,-RA,0.00,VWS V14.00,2013-04-09 15:47:00,
2013-04-09 10:52:00,61.7,54.8,28.59,North,357,0.0,0.0,78,0.00,,-RA,0.00,VWS V14.00,2013-04-09 15:52:00,
2013-04-09 10:57:00,61.3,53.7,28.61,West,279,3.1,3.1,76,0.00,,-RA,0.00,VWS V14.00,2013-04-09 15:57:00,
2013-04-09 11:02:00,61.5,53.5,28.61,West,279,0.0,3.6,75,0.00,,,0.00,VWS V14.00,2013-04-09 16:02:00,
2013-04-09 11:07:00,61.3,53.0,28.61,SW,216,3.1,5.8,74,0.00,,,0.00,VWS V14.00,2013-04-09 16:07:00,
2013-04-09 11:12:00,60.6,51.9,28.61,NW,307,4.0,5.4,73,0.00,,,0.00,VWS V14.00,2013-04-09 16:12:00,
2013-04-09 11:17:00,60.3,51.6,28.61,NW,313,3.6,6.3,73,0.00,,,0.00,VWS V14.00,2013-04-09 16:17:00,
2013-04-09 11:22:00,60.3,50.8,28.61,WNW,289,2.7,4.9,71,0.00,,,0.00,VWS V14.00,2013-04-09 16:22:00,
2013-04-09 11:27:00,60.3,50.8,28.61,WNW,302,0.0,4.9,71,0.00,,,0.00,VWS V14.00,2013-04-09 16:27:00,
2013-04-09 11:32:00,60.3,50.5,28.61,WNW,299,2.2,4.0,70,0.00,,,0.00,VWS V14.00,2013-04-09 16:32:00,
2013-04-09 11:37:00,60.3,50.1,28.61,WNW,301,0.0,4.9,69,0.00,,,0.00,VWS V14.00,2013-04-09 16:37:00,
2013-04-09 11:42:00,60.6,50.0,28.61,North,353,0.0,3.6,68,0.00,,,0.00,VWS V14.00,2013-04-09 16:42:00,
2013-04-09 11:47:00,61.2,50.1,28.61,North,353,0.0,3.6,67,0.00,,,0.00,VWS V14.00,2013-04-09 16:47:00,
2013-04-09 11:52:00,62.2,50.3,28.61,NNW,333,0.0,3.1,65,0.00,,,0.00,VWS V14.00,2013-04-09 16:52:00,
2013-04-09 11:57:00,63.0,47.5,28.61,NNW,340,6.3,6.3,57,0.00,,,0.00,VWS V14.00,2013-04-09 16:57:00,
2013-04-09 12:02:00,64.2,45.7,28.61,WNW,300,2.7,4.0,51,0.00,,-RA,0.00,VWS V14.00,2013-04-09 17:02:00,
2013-04-09 12:07:00,66.0,45.8,28.61,NW,313,3.1,4.9,48,0.00,,-RA,0.00,VWS V14.00,2013-04-09 17:07:00,
2013-04-09 12:12:00,66.6,44.0,28.59,WNW,302,5.4,5.4,44,0.00,,-RA,0.00,VWS V14.00,2013-04-09 17:12:00,
2013-04-09 12:17:00,67.3,42.8,28.59,WNW,286,0.0,5.8,41,0.00,,-RA,0.00,VWS V14.00,2013-04-09 17:17:00,
2013-04-09 12:22:00,66.7,41.0,28.59,WSW,251,5.4,5.8,39,0.00,,-RA,0.00,VWS V14.00,2013-04-09 17:22:00,
2013-04-09 12:27:00,68.5,43.3,28.59,West,279,0.0,6.3,40,0.00,,-RA,0.00,VWS V14.00,2013-04-09 17:27:00,
2013-04-09 12:32:00,70.3,40.7,28.59,NNW,348,3.1,5.4,34,0.00,,-RA,0.00,VWS V14.00,2013-04-09 17:32:00,
2013-04-09 12:37:00,68.9,39.4,28.59,NW,309,5.4,7.6,34,0.00,,-RA,0.00,VWS V14.00,2013-04-09 17:37:00,
2013-04-09 12:42:00,70.3,41.4,28.59,WNW,291,3.1,3.6,35,0.00,,-RA,0.00,VWS V14.00,2013-04-09 17:42:00,
2013-04-09 12:47:00,70.9,40.4,28.59,NNW,331,4.5,5.4,33,0.00,,-RA,0.00,VWS V14.00,2013-04-09 17:47:00,
2013-04-09 12:52:00,66.7,40.3,28.59,WNW,299,2.7,5.8,38,0.00,,-RA,0.00,VWS V14.00,2013-04-09 17:52:00,
2013-04-09 12:57:00,62.1,41.1,28.61,WNW,285,13.2,13.2,46,0.00,,-RA,0.00,VWS V14.00,2013-04-09 17:57:00,
2013-04-09 13:02:00,59.5,42.9,28.61,WNW,283,4.9,7.6,54,0.00,,,0.00,VWS V14.00,2013-04-09 18:02:00,
2013-04-09 13:07:00,59.7,44.0,28.61,SW,219,4.0,7.6,56,0.00,,,0.00,VWS V14.00,2013-04-09 18:07:00,
2013-04-09 13:12:00,58.5,43.8,28.61,West,268,3.1,11.0,58,0.00,,,0.00,VWS V14.00,2013-04-09 18:12:00,
2013-04-09 13:17:00,56.7,42.5,28.61,WSW,255,4.0,11.0,59,0.00,,,0.00,VWS V14.00,2013-04-09 18:17:00,
2013-04-09 13:22:00,56.1,42.0,28.61,SW,235,11.0,11.0,59,0.00,,,0.00,VWS V14.00,2013-04-09 18:22:00,
2013-04-09 22:43:00,44.2,41.8,28.70,North,349,2.7,2.7,91,0.00,,,0.00,VWS V14.00,2013-04-10 03:43:00,
2013-04-09 22:48:00,44.2,41.8,28.70,NW,314,5.8,6.3,91,0.08,,OVC005,0.00,VWS V14.00,2013-04-10 03:48:00,
2013-04-09 22:53:00,44.2,41.8,28.70,WNW,303,0.0,5.8,91,0.00,,OVC005,0.00,VWS V14.00,2013-04-10 03:53:00,
2013-04-09 22:58:00,44.2,41.8,28.73,West,261,2.7,5.8,91,0.00,,-RA,0.00,VWS V14.00,2013-04-10 03:58:00,
2013-04-09 23:00:00,44.2,41.8,28.73,NW,324,3.6,3.6,91,0.00,,-RA,0.00,VWS V14.00,2013-04-10 04:00:00,
2013-04-09 23:05:00,44.2,41.8,28.73,West,279,7.6,8.1,91,0.00,,-RA,0.00,VWS V14.00,2013-04-10 04:05:00,
2013-04-09 23:10:00,44.1,41.6,28.73,NW,313,6.3,7.6,91,0.00,,-RA,0.00,VWS V14.00,2013-04-10 04:10:00,
2013-04-09 23:15:00,44.1,41.6,28.73,West,275,6.3,7.6,91,0.00,,-RA,0.00,VWS V14.00,2013-04-10 04:15:00,
2013-04-09 23:20:00,43.9,41.4,28.73,NW,310,4.0,7.6,91,0.00,,-RA,0.00,VWS V14.00,2013-04-10 04:20:00,
2013-04-09 23:25:00,43.7,41.2,28.70,NNW,345,6.3,8.3,91,0.00,,-RA,0.00,VWS V14.00,2013-04-10 04:25:00,
2013-04-09 23:30:00,43.7,41.2,28.70,NW,305,3.6,5.8,91,0.00,,-RA,0.00,VWS V14.00,2013-04-10 04:30:00,
2013-04-09 23:35:00,43.7,41.2,28.70,WNW,301,5.4,6.3,91,0.00,,-RA,0.00,VWS V14.00,2013-04-10 04:35:00,
2013-04-09 23:40:00,43.7,41.2,28.70,NNW,338,5.4,6.7,91,0.00,,-RA,0.00,VWS V14.00,2013-04-10 04:40:00,
2013-04-09 23:45:00,43.5,41.1,28.73,NW,326,2.7,7.6,91,0.00,,-RA,0.00,VWS V14.00,2013-04-10 04:45:00,
2013-04-09 23:50:00,43.7,41.2,28.73,WNW,284,3.1,8.3,91,0.00,,-RA,0.00,VWS V14.00,2013-04-10 04:50:00,
2013-04-09 23:55:00,43.7,41.2,28.73,WSW,241,8.1,8.3,91,0.00,,-RA,0.00,VWS V14.00,2013-04-10 04:55:00,